Terminal Aerodrome Forecast
Issued by NWS

Home | Current Version | Previous Version | Graphics & Text | Print | Product List | Glossary On
Versions: 1 2 3 4 5 6 7 8 9 10 11 12 13 14 15 16 17
000
FTUS43 KFGF 241100
TAFBJI
TAF
KBJI 241122Z 2412/2512 29016KT P6SM -SN OVC010
     FM241700 32017G24KT 4SM -SN OVC015
     FM250000 31014G20KT P6SM SCT250
     FM250600 27004KT P6SM OVC100
     FM251000 25004KT P6SM OVC050=

USA.gov is the U.S. government's official web portal to all federal, state and local government web resources and services.